• Join FlightAware (Why Join?)
  • Login
  • US Flag 
02:11AM EDT


 

Airport Tracker/Info


-or-


 

Live Flight TrackerFlight Track Log ✈ DAL2070 ✈ 18-Jul-2013 ✈ KMSP - KPHX

Flight Track Log - Related Links

Times and Time Zones

All times are in EDT time to prevent confusion due to time zone crossing. See the DAL2070 flight status page for this flight to view local times or setup timezone preferences in your user account.

Time Position Orientation Groundspeed Altitude Reporting Facility
EDT Latitude Longitude Course Direction KTS MPH feet Rate Location/Type
11:27PM 44.8333 -93.1167 233° Southwest 259 298 3,300  Level Minneapolis TRACON
11:29PM 44.6688 -93.6469 227° Southwest  Level FlightAware Approximate
11:29PM 44.7778 -93.0881 160° South 264 304 5,400  Level Minneapolis Center
11:30PM 44.5991 -93.7988 237° Southwest  Level FlightAware Approximate
11:30PM 44.7458 -93.1775 243° Southwest 260 299 7,900  Level Minneapolis Center
11:31PM 44.5159 -93.9349 235° Southwest  Level FlightAware Approximate
11:31PM 44.7178 -93.2894 251° West 283 326 10,500  Level Minneapolis Center
11:32PM 44.4421 -94.0826 235° Southwest  Level FlightAware Approximate
11:32PM 44.6881 -93.4125 251° West 336 387 11,400  Level Minneapolis Center
11:33PM 44.3676 -94.2293 233° Southwest  Level FlightAware Approximate
11:33PM 44.6556 -93.5500 252° West 370 426 13,200  Level Minneapolis Center
11:34PM 44.6067 -93.6853 243° Southwest 394 453 15,100 1,620 Climbing Minneapolis Center
11:35PM 44.5431 -93.8161 236° Southwest 408 470 16,600 1,620 Climbing Minneapolis Center
11:36PM 44.4772 -93.9506 236° Southwest 418 481 18,500 1,680 Climbing Minneapolis Center
11:37PM 44.4111 -94.0850 235° Southwest 420 483 20,100 1,620 Climbing Minneapolis Center
11:38PM 44.3289 -94.2519 235° Southwest 432 497 21,900 1,320 Climbing Minneapolis Center
11:39PM 44.2575 -94.3933 235° Southwest 444 511 22,900 1,020 Climbing Minneapolis Center
11:40PM 44.1861 -94.5369 235° Southwest 451 519 24,200 1,260 Climbing Minneapolis Center
11:41PM 44.1050 -94.6975 235° Southwest 450 518 25,800 1,440 Climbing Minneapolis Center
11:42PM 44.0344 -94.8383 235° Southwest 445 512 27,200 1,320 Climbing Minneapolis Center
11:43PM 43.9625 -94.9758 234° Southwest 441 507 28,500 1,320 Climbing Minneapolis Center
11:44PM 43.8786 -95.1408 235° Southwest 437 503 30,000 720 Climbing Minneapolis Center
11:45PM 43.8089 -95.2767 235° Southwest 433 498 30,000  Level Minneapolis Center
11:46PM 43.7383 -95.4119 234° Southwest 432 497 30,000  Level Minneapolis Center
11:47PM 43.6681 -95.5483 235° Southwest 434 499 30,000  Level Minneapolis Center
11:48PM 43.5964 -95.6847 234° Southwest 437 503 30,000  Level Minneapolis Center
11:49PM 43.5256 -95.8225 235° Southwest 438 504 30,000  Level Minneapolis Center
11:50PM 43.4539 -95.9583 234° Southwest 438 504 30,000  Level Minneapolis Center
11:51PM 43.3978 -96.0661 234° Southwest 435 501 30,000  Level Minneapolis Center
11:52PM 43.3117 -96.2297 234° Southwest 438 504 30,000  Level Minneapolis Center
11:53PM 43.2397 -96.3650 234° Southwest 438 504 30,000  Level Minneapolis Center
11:54PM 43.1533 -96.5272 234° Southwest 439 505 30,000  Level Minneapolis Center
11:55PM 43.0808 -96.6622 234° Southwest 441 507 30,000  Level Minneapolis Center
11:57PM 42.9931 -96.8239 233° Southwest 441 507 30,000  Level Minneapolis Center
11:58PM 42.9350 -96.9339 234° Southwest 445 512 30,000  Level Minneapolis Center
11:59PM 42.8469 -97.0928 233° Southwest 440 506 30,000  Level Minneapolis Center
12:00AM 42.7742 -97.2286 234° Southwest 442 509 30,000  Level Minneapolis Center
12:01AM 42.7008 -97.3614 233° Southwest 442 509 30,000  Level Minneapolis Center
12:02AM 42.6250 -97.5008 234° Southwest 440 506 30,000  Level Minneapolis Center
12:03AM 42.5508 -97.6353 233° Southwest 444 511 30,000  Level Minneapolis Center
12:04AM 42.4622 -97.7969 233° Southwest 446 513 30,000  Level Minneapolis Center
12:05AM 42.3944 -97.9203 233° Southwest 447 514 30,000  Level Minneapolis Center
12:06AM 42.3036 -98.0797 232° Southwest 447 514 30,000  Level Minneapolis Center
12:07AM 42.2292 -98.2139 233° Southwest 447 514 30,000  Level Minneapolis Center
12:08AM 42.1542 -98.3467 233° Southwest 446 513 30,000  Level Minneapolis Center
12:09AM 42.0781 -98.4811 233° Southwest 451 519 30,000  Level Minneapolis Center
12:10AM 41.9875 -98.6397 233° Southwest 448 516 30,000  Level Minneapolis Center
12:11AM 41.9103 -98.7736 232° Southwest 452 520 30,000  Level Minneapolis Center
12:12AM 41.8342 -98.9067 233° Southwest 452 520 30,000  Level Minneapolis Center
12:13AM 41.7428 -99.0647 232° Southwest 450 518 30,000  Level Minneapolis Center
12:14AM 41.6656 -99.1967 232° Southwest 451 519 30,000  Level Minneapolis Center
12:15AM 41.5889 -99.3289 232° Southwest 453 521 30,000  Level Minneapolis Center
12:16AM 41.5267 -99.4347 232° Southwest 455 524 30,000  Level Minneapolis Center
12:17AM 41.4175 -99.6208 232° Southwest 457 526 30,000  Level Minneapolis Center
12:18AM 41.3392 -99.7528 232° Southwest 456 525 30,000  Level Minneapolis Center
12:19AM 41.2614 -99.8856 232° Southwest 457 526 30,000  Level Minneapolis Center
12:21AM 41.1819 -100.0183 232° Southwest 459 528 30,000  Level Minneapolis Center
12:22AM 41.1025 -100.1511 232° Southwest 461 531 30,000  Level Minneapolis Center
12:23AM 41.0217 -100.2836 231° Southwest 461 531 30,000  Level Minneapolis Center
12:24AM 40.9575 -100.3906 232° Southwest 463 533 30,000  Level Minneapolis Center
12:25AM 40.8608 -100.5494 231° Southwest 462 532 30,000  Level Minneapolis Center
12:26AM 40.7481 -100.7244 230° Southwest 476 548 30,000  Level Denver Center
12:27AM 40.6686 -100.8556 231° Southwest 472 543 30,000  Level Denver Center
12:28AM 40.5897 -100.9828 231° Southwest 469 540 30,000 240 Level Denver Center
12:29AM 40.4983 -101.1319 231° Southwest 469 540 30,500 780 Climbing Denver Center
12:30AM 40.4189 -101.2586 231° Southwest 469 540 31,700 720 Climbing Denver Center
12:31AM 40.3403 -101.3836 230° Southwest 464 534 32,000 120 Climbing Denver Center
12:32AM 40.2475 -101.5297 230° Southwest 466 536 32,000  Level Denver Center
12:33AM 40.1686 -101.6544 230° Southwest 465 535 32,000  Level Denver Center
12:34AM 40.0747 -101.8011 230° Southwest 471 542 32,000  Level Denver Center
12:35AM 39.9950 -101.9247 230° Southwest 466 536 32,000  Level Denver Center
12:36AM 39.9153 -102.0503 230° Southwest 468 539 32,000  Level Denver Center
12:37AM 39.8203 -102.1942 229° Southwest 469 540 32,000  Level Denver Center
12:38AM 39.7400 -102.3189 230° Southwest 470 541 32,000  Level Denver Center
12:39AM 39.6608 -102.4425 230° Southwest 466 536 32,000  Level Denver Center
12:40AM 39.5522 -102.6131 230° Southwest 462 532 32,000  Level Denver Center
12:41AM 39.4672 -102.7433 230° Southwest 469 540 32,000  Level Denver Center
12:42AM 39.3833 -102.8714 230° Southwest 469 540 32,000  Level Denver Center
12:43AM 39.2961 -103.0028 229° Southwest 478 550 32,000  Level Denver Center
12:44AM 39.2103 -103.1322 229° Southwest 475 547 32,000  Level Denver Center
12:45AM 39.1250 -103.2614 230° Southwest 474 545 32,000  Level Denver Center
12:47AM 39.0225 -103.4153 229° Southwest 471 542 32,000  Level Denver Center
12:48AM 38.9186 -103.5692 229° Southwest 472 543 32,000  Level Denver Center
12:49AM 38.8236 -103.7083 229° Southwest 474 545 32,000  Level Denver Center
12:50AM 38.7417 -103.8283 229° Southwest 468 539 32,000  Level Denver Center
12:51AM 38.6464 -103.9694 229° Southwest 471 542 32,000  Level Denver Center
12:52AM 38.5650 -104.0889 229° Southwest 467 537 32,000  Level Denver Center
12:53AM 38.4708 -104.2253 229° Southwest 469 540 32,000  Level Denver Center
12:54AM 38.3836 -104.3506 228° Southwest 471 542 32,000  Level Denver Center
12:55AM 38.3033 -104.4678 229° Southwest 472 543 32,000  Level Denver Center
12:56AM 38.2064 -104.6078 229° Southwest 473 544 32,000  Level Denver Center
12:57AM 38.1222 -104.7269 228° Southwest 475 547 32,000  Level Denver Center
12:58AM 38.0383 -104.8464 228° Southwest 475 547 32,000  Level Denver Center
12:59AM 37.9406 -104.9858 228° Southwest 475 547 32,000  Level Denver Center
01:00AM 37.8569 -105.1061 229° Southwest 477 549 32,000  Level Denver Center
01:01AM 37.7861 -105.2061 228° Southwest 478 550 32,000  Level Denver Center
01:02AM 37.6731 -105.3658 228° Southwest 479 551 32,000  Level Denver Center
01:03AM 37.5881 -105.4858 228° Southwest 481 554 32,000  Level Denver Center
01:04AM 37.4969 -105.6094 227° Southwest 482 555 32,000  Level Denver Center
01:05AM 37.3989 -105.7508 229° Southwest 480 552 32,000  Level Denver Center
01:06AM 37.3164 -105.8708 229° Southwest 473 544 32,000  Level Denver Center
01:07AM 37.2417 -105.9972 233° Southwest 472 543 32,000  Level Denver Center
01:08AM 37.1544 -106.1472 234° Southwest 476 548 32,000  Level Denver Center
01:09AM 37.0758 -106.2744 232° Southwest 479 551 32,000  Level Denver Center
01:10AM 37.0022 -106.4039 235° Southwest 478 550 32,000  Level Denver Center
01:12AM 36.8997 -106.5736 233° Southwest 478 550 32,000  Level Denver Center
01:13AM 36.8114 -106.7192 233° Southwest 472 543 32,000  Level Denver Center
01:14AM 36.7247 -106.8653 234° Southwest 469 540 32,000  Level Denver Center
01:15AM 36.6356 -107.0106 233° Southwest 472 543 32,000  Level Denver Center
01:16AM 36.5469 -107.1544 233° Southwest 469 540 32,000  Level Denver Center
01:17AM 36.4719 -107.2794 233° Southwest 470 541 32,000  Level Denver Center
01:18AM 36.3964 -107.4039 233° Southwest 471 542 32,000  Level Denver Center
01:18AM 36.3458 -107.4881 233° Southwest 471 542 32,000  Level Albuquerque Center
01:19AM 36.2572 -107.6342 233° Southwest 475 547 32,000  Level Albuquerque Center
01:20AM 36.1800 -107.7575 232° Southwest 473 544 32,000  Level Albuquerque Center
01:21AM 36.0975 -107.8736 229° Southwest 471 542 32,000  Level Albuquerque Center
01:23AM 35.9894 -108.0022 224° Southwest 476 548 32,000  Level Albuquerque Center
01:24AM 35.9008 -108.1125 225° Southwest 474 545 32,000  Level Albuquerque Center
01:25AM 35.8117 -108.2217 225° Southwest 471 542 32,000  Level Albuquerque Center
01:26AM 35.7208 -108.3294 224° Southwest 471 542 32,000  Level Albuquerque Center
01:27AM 35.6178 -108.4564 225° Southwest 468 539 32,000  Level Albuquerque Center
01:28AM 35.5294 -108.5647 225° Southwest 466 536 32,000  Level Albuquerque Center
01:29AM 35.4406 -108.6711 224° Southwest 465 535 32,000  Level Albuquerque Center
01:30AM 35.3378 -108.7931 224° Southwest 461 531 32,000  Level Albuquerque Center
01:31AM 35.2500 -108.8992 225° Southwest 460 529 32,000  Level Albuquerque Center
01:32AM 35.1617 -109.0047 224° Southwest 461 531 32,000  Level Albuquerque Center
01:33AM 35.0600 -109.1275 225° Southwest 460 529 32,000  Level Albuquerque Center
01:34AM 34.9714 -109.2311 224° Southwest 459 528 32,000  Level Albuquerque Center
01:35AM 34.8836 -109.3381 225° Southwest 462 532 32,000 -180 Level Albuquerque Center
01:36AM 34.7814 -109.4572 224° Southwest 458 527 31,700 -780 Descending Albuquerque Center
01:37AM 34.6942 -109.5603 224° Southwest 455 524 30,500 -1,140 Descending Albuquerque Center
01:38AM 34.6089 -109.6728 227° Southwest 466 536 29,500 -1,140 Descending Albuquerque Center
01:39AM 34.5256 -109.7853 228° Southwest 468 539 28,300 -1,320 Descending Albuquerque Center
01:40AM 34.4286 -109.9172 228° Southwest 468 539 26,900 -1,200 Descending Albuquerque Center
01:41AM 34.3439 -110.0317 228° Southwest 474 545 25,900 -900 Descending Albuquerque Center
01:42AM 34.2656 -110.1389 229° Southwest 470 541 25,100 -960 Descending Albuquerque Center
01:43AM 34.1703 -110.2372 221° Southwest 450 518 24,000 -1,560 Descending Albuquerque Center
01:44AM 34.0567 -110.3417 217° Southwest 433 498 22,000 -1,500 Descending Albuquerque Center
01:45AM 33.9694 -110.4194 216° Southwest 443 510 21,000 -1,080 Descending Albuquerque Center
01:46AM 33.8708 -110.5092 217° Southwest 445 512 19,900 -1,080 Descending Albuquerque Center
01:47AM 33.7844 -110.6058 223° Southwest 435 501 18,900 -1,140 Descending Albuquerque Center
01:48AM 33.7681 -110.7425 262° West 426 490 17,700 -1,680 Descending Albuquerque Center
01:49AM 33.7589 -110.8814 265° West 418 481 15,600 -1,920 Descending Albuquerque Center
01:50AM 33.7242 -111.0064 252° West 401 461 13,900 -1,560 Descending Albuquerque Center
01:51AM 33.6936 -111.1103 251° West 347 399 12,500 -960 Descending Albuquerque Center
01:52AM 33.6636 -111.2056 249° West 314 361 12,000 -300 Descending Albuquerque Center
01:53AM 33.6342 -111.2994 249° West 304 350 12,000 -780 Level Albuquerque Center
01:54AM 33.6053 -111.3953 250° West 303 349 10,500 -1,020 Descending Albuquerque Center
01:55AM 33.5800 -111.4875 252° West 295 339 10,000 -300 Descending Albuquerque Center
01:56AM 33.5472 -111.5969 250° West 291 335 10,000  Level Albuquerque Center
01:57AM 33.5478 -111.6931 270° West 289 333 10,000  Level Albuquerque Center
01:58AM 33.5478 -111.7908 270° West 290 334 10,000  Level Albuquerque Center
01:59AM 33.5500 -111.9000 271° West 289 333 10,000 -180 Level Phoenix TRACON
02:00AM 33.5500 -111.9833 270° West 250 288 9,700 -1,260 Descending Phoenix TRACON
02:01AM 33.5500 -112.0667 270° West 236 272 7,700 -2,340 Descending Phoenix TRACON
02:02AM 33.5500 -112.1500 270° West 237 273 5,100 -2,100 Descending Phoenix TRACON
02:03AM 33.5167 -112.2000 231° Southwest 230 265 3,500 -1,080 Descending Phoenix TRACON
02:04AM 33.4667 -112.2500 220° Southwest 223 257 3,000 -300 Descending Phoenix TRACON
02:05AM 33.4411 -112.1958 119° Southeast 217 250 3,000 -180 Level Albuquerque Center
02:06AM 33.4417 -112.1303 89° East 205 236 2,700 -600 Descending Albuquerque Center
02:07AM 33.4417 -112.0753 90° East 188 216 1,900 -780 Descending Albuquerque Center
02:08AM 33.4419 -112.0300 90° East 164 189 1,200 -720 Descending Albuquerque Center